Terminal Aerodrome Forecast
Issued by NWS

Home | Current Version | Previous Version | Text Only | Print | Product List | Glossary On
Versions: 1 2 3 4 5 6 7 8 9 10 11 12 13 14 15 16 17 18 19 20 21 22 23 24 25 26 27 28 29 30 31 32 33 34 35 36 37 38 39 40 41 42 43 44 45 46 47 48 49
000
FTUS43 KDLH 271300 AAA
TAFHYR
TAF AMD
KHYR 271313Z 2713/2812 20006KT P6SM SCT150
     FM271800 26009KT P6SM SCT060
     FM272100 29008G14KT P6SM VCTS BKN070CB
     FM280400 VRB03KT P6SM FEW050
     FM280900 00000KT 3SM BR SKC=

USA.gov is the U.S. government's official web portal to all federal, state and local government web resources and services.